createdAt,value
2023-06-30T00:00:58.648Z,98292.67
2023-06-30T00:01:58.586Z,98288.77
2023-06-30T00:02:58.711Z,98287.77
2023-06-30T00:03:58.659Z,98295.17
2023-06-30T00:04:58.643Z,98291
2023-06-30T00:05:58.652Z,98291.8
2023-06-30T00:06:58.638Z,98292.77
2023-06-30T00:07:58.653Z,98291.66
2023-06-30T00:08:58.701Z,98296.2
2023-06-30T00:09:58.740Z,98293.03
2023-06-30T00:10:58.759Z,98300.2
2023-06-30T00:11:58.703Z,98295.69
2023-06-30T00:12:58.736Z,98296.05
2023-06-30T00:13:58.755Z,98296.7
2023-06-30T00:14:58.934Z,98295.23
2023-06-30T00:15:58.901Z,98295.86
2023-06-30T00:16:58.808Z,98296.41
2023-06-30T00:17:58.817Z,98295.94
2023-06-30T00:18:59.302Z,98293.98
2023-06-30T00:19:59.038Z,98296.75
2023-06-30T00:20:59.010Z,98299.54
2023-06-30T00:21:58.860Z,98299.38
2023-06-30T00:22:58.997Z,98300.02
2023-06-30T00:23:58.860Z,98302.04
2023-06-30T00:24:58.976Z,98298.98
2023-06-30T00:25:58.924Z,98299.84
2023-06-30T00:26:58.974Z,98298.93
2023-06-30T00:27:58.962Z,98297
2023-06-30T00:28:58.939Z,98299.95
2023-06-30T00:29:59.180Z,98297.71
2023-06-30T00:30:58.999Z,98294.5
2023-06-30T00:31:59.019Z,98295.45
2023-06-30T00:32:59.021Z,98295.41
2023-06-30T00:33:59.214Z,98296.26
2023-06-30T00:34:59.237Z,98297.48
2023-06-30T00:35:59.053Z,98295.1
2023-06-30T00:36:59.051Z,98295.59
2023-06-30T00:37:59.143Z,98294.38
2023-06-30T00:38:59.316Z,98292.88
2023-06-30T00:39:59.098Z,98294.19
2023-06-30T00:40:59.109Z,98292.2
2023-06-30T00:41:59.161Z,98295.35
2023-06-30T00:42:59.117Z,98298.47
2023-06-30T00:43:59.123Z,98297.82
2023-06-30T00:44:59.144Z,98296.73
2023-06-30T00:45:59.399Z,98296.21
2023-06-30T00:46:59.534Z,98295.97
2023-06-30T00:47:59.251Z,98296.99
2023-06-30T00:48:59.236Z,98298.95
2023-06-30T00:49:59.291Z,98303.42
2023-06-30T00:50:59.554Z,98302.56
2023-06-30T00:52:00.116Z,98300.28
2023-06-30T00:52:59.876Z,98301.62
2023-06-30T00:53:59.459Z,98301.72
2023-06-30T00:54:59.316Z,98303.54
2023-06-30T00:55:59.360Z,98302.05
2023-06-30T00:56:59.683Z,98303.54
2023-06-30T00:57:59.326Z,98305.95
2023-06-30T00:58:59.406Z,98304.49
2023-06-30T00:59:59.391Z,98304.36
2023-06-30T01:01:02.226Z,98304.89
2023-06-30T01:02:02.209Z,98307.22
2023-06-30T01:03:10.432Z,98304.14
2023-06-30T01:04:07.585Z,98303
2023-06-30T01:05:18.566Z,98302.03
2023-06-30T01:06:09.329Z,98305.62
2023-06-30T01:09:12.742Z,98304.63
2023-06-30T01:10:15.977Z,98301.3
2023-06-30T01:11:12.548Z,98300.72
2023-06-30T01:12:12.185Z,98302.18
2023-06-30T01:13:12.500Z,98298.14
2023-06-30T01:14:12.294Z,98300.68
2023-06-30T01:15:13.248Z,98298.12
2023-06-30T01:16:12.536Z,98301.11
2023-06-30T01:17:12.592Z,98303.59
2023-06-30T01:18:13.187Z,98297.38
2023-06-30T01:19:18.139Z,98293.17
2023-06-30T01:20:15.656Z,98297.02
2023-06-30T01:21:15.811Z,98298.12
2023-06-30T01:24:23.766Z,98293.91
2023-06-30T01:25:22.185Z,98289.7
2023-06-30T01:26:22.016Z,98295.38
2023-06-30T01:27:21.788Z,98294.12
2023-06-30T01:28:21.570Z,98292.8
2023-06-30T01:29:21.624Z,98292.78
2023-06-30T01:30:22.196Z,98296.98
2023-06-30T01:31:21.593Z,98297.01
2023-06-30T01:32:21.565Z,98295.81
2023-06-30T01:33:21.566Z,98297.61
2023-06-30T01:34:22.221Z,98297.39
2023-06-30T01:35:24.199Z,98296.7
2023-06-30T01:36:21.481Z,98295.23
2023-06-30T01:37:21.500Z,98294.21
2023-06-30T01:38:21.531Z,98293.12
2023-06-30T01:39:21.861Z,98292.63
2023-06-30T01:40:22.387Z,98293.23
2023-06-30T01:41:21.754Z,98292.09
2023-06-30T01:42:21.543Z,98286.23
2023-06-30T01:43:21.583Z,98287.71
2023-06-30T01:44:21.711Z,98287.47
2023-06-30T01:45:22.237Z,98288.62
2023-06-30T01:46:21.866Z,98285.84
2023-06-30T01:47:21.843Z,98286.92
2023-06-30T01:48:22.000Z,98289.23
2023-06-30T01:49:22.286Z,98287.31
2023-06-30T01:50:22.039Z,98282.49
2023-06-30T01:51:21.864Z,98284.29
2023-06-30T01:52:21.866Z,98286.03
2023-06-30T01:53:21.727Z,98285.62
2023-06-30T01:54:21.774Z,98282.34
2023-06-30T01:55:21.753Z,98279.98
2023-06-30T01:56:21.762Z,98276.62
2023-06-30T01:57:21.771Z,98276.41
2023-06-30T01:58:21.890Z,98278.92
2023-06-30T01:59:21.771Z,98279.47
2023-06-30T02:00:21.805Z,98282.47
2023-06-30T02:01:21.903Z,98282.41
2023-06-30T02:02:21.944Z,98281.04
2023-06-30T02:03:21.915Z,98279.84
2023-06-30T02:04:21.853Z,98281.23
2023-06-30T02:05:21.864Z,98288.66
2023-06-30T02:06:22.020Z,98282
2023-06-30T02:07:21.914Z,98283.58
2023-06-30T02:08:21.893Z,98280.52
2023-06-30T02:09:25.806Z,98283.55
2023-06-30T02:10:22.266Z,98283.11
2023-06-30T02:11:22.305Z,98282.62
2023-06-30T02:12:22.394Z,98286.66
2023-06-30T02:13:22.523Z,98283.64
2023-06-30T02:14:23.027Z,98288.42
2023-06-30T02:15:22.347Z,98282.53
2023-06-30T02:16:22.454Z,98282.23
2023-06-30T02:17:28.903Z,98284.45
2023-06-30T02:18:25.178Z,98281.02
2023-06-30T02:19:25.244Z,98284.38
2023-06-30T02:20:25.221Z,98287.64
2023-06-30T02:21:26.265Z,98284.89
2023-06-30T02:22:25.252Z,98283.38
2023-06-30T02:23:25.271Z,98284.16
2023-06-30T02:24:25.268Z,98287.24
2023-06-30T02:25:25.298Z,98282.55
2023-06-30T02:26:25.303Z,98284.74
2023-06-30T02:27:25.504Z,98284.83
2023-06-30T02:28:25.300Z,98284.8
2023-06-30T02:29:25.318Z,98281.99
2023-06-30T02:30:25.316Z,98287.66
2023-06-30T02:31:25.399Z,98288.62
2023-06-30T02:32:25.431Z,98287.98
2023-06-30T02:33:25.386Z,98286.28
2023-06-30T02:34:25.395Z,98287.23
2023-06-30T02:35:25.517Z,98289.48
2023-06-30T02:36:25.456Z,98289.27
2023-06-30T02:37:25.508Z,98293.52
2023-06-30T02:38:25.439Z,98292.05
2023-06-30T02:39:25.667Z,98293.19
2023-06-30T02:40:25.506Z,98290.94
2023-06-30T02:41:25.495Z,98294.56
2023-06-30T02:42:25.543Z,98292.97
2023-06-30T02:43:25.545Z,98293.37
2023-06-30T02:44:25.544Z,98292.02
2023-06-30T02:45:25.584Z,98294.02
2023-06-30T02:46:25.667Z,98296.56
2023-06-30T02:47:25.592Z,98295.77
2023-06-30T02:48:25.626Z,98293.56
2023-06-30T02:49:25.808Z,98295.65
2023-06-30T02:50:29.529Z,98297.48
2023-06-30T02:51:25.727Z,98294.16
2023-06-30T02:52:25.731Z,98291.51
2023-06-30T02:53:25.805Z,98297.77
2023-06-30T02:54:25.769Z,98296.09
2023-06-30T02:55:25.796Z,98291.05
2023-06-30T02:56:25.791Z,98297.15
2023-06-30T02:57:26.071Z,98293.46
2023-06-30T02:58:26.034Z,98298.17
2023-06-30T02:59:25.864Z,98293.83
2023-06-30T03:00:25.877Z,98296.47
2023-06-30T03:01:25.983Z,98293.3
2023-06-30T03:02:26.014Z,98295.16
2023-06-30T03:03:25.964Z,98292.88
2023-06-30T03:04:25.929Z,98296.3
2023-06-30T03:05:25.916Z,98297.32
2023-06-30T03:06:25.941Z,98296.92
2023-06-30T03:07:26.483Z,98295.59
2023-06-30T03:08:26.038Z,98292.23
2023-06-30T03:09:26.009Z,98290.22
2023-06-30T03:10:26.008Z,98293.99
2023-06-30T03:11:26.113Z,98292.76
2023-06-30T03:12:26.071Z,98293.06
2023-06-30T03:13:26.247Z,98293.84
2023-06-30T03:14:26.094Z,98290.7
2023-06-30T03:15:26.140Z,98291.55
2023-06-30T03:16:26.148Z,98291.88
2023-06-30T03:17:26.153Z,98295.06
2023-06-30T03:18:26.181Z,98290.67
2023-06-30T03:19:26.196Z,98291.91
2023-06-30T03:20:26.180Z,98290.88
2023-06-30T03:21:26.190Z,98288.12
2023-06-30T03:22:26.199Z,98289.67
2023-06-30T03:23:26.210Z,98292.64
2023-06-30T03:24:26.299Z,98289.12
2023-06-30T03:25:26.311Z,98293.31
2023-06-30T03:26:26.268Z,98295.23
2023-06-30T03:27:26.278Z,98298.16
2023-06-30T03:28:26.320Z,98298.05
2023-06-30T03:29:26.621Z,98298.33
2023-06-30T03:30:26.298Z,98300.95
2023-06-30T03:31:26.407Z,98298.95
2023-06-30T03:32:26.381Z,98299.88
2023-06-30T03:33:26.354Z,98301.3
2023-06-30T03:34:26.428Z,98299.42
2023-06-30T03:35:26.608Z,98300.03
2023-06-30T03:36:26.433Z,98302.97
2023-06-30T03:37:26.426Z,98302.46
2023-06-30T03:38:26.444Z,98302.64
2023-06-30T03:39:26.689Z,98303.17
2023-06-30T03:40:26.542Z,98304.48
2023-06-30T03:41:26.527Z,98306.73
2023-06-30T03:42:26.570Z,98304.58
2023-06-30T03:43:26.548Z,98305.46
2023-06-30T03:44:26.581Z,98304.77
2023-06-30T03:45:26.619Z,98299.1
2023-06-30T03:46:26.617Z,98298.34
2023-06-30T03:47:26.642Z,98300.09
2023-06-30T03:48:26.635Z,98296.69
2023-06-30T03:49:26.630Z,98300.87
2023-06-30T03:50:26.658Z,98296.45
2023-06-30T03:51:26.678Z,98295.92
2023-06-30T03:52:26.673Z,98293.23
2023-06-30T03:53:26.668Z,98294.12
2023-06-30T03:54:26.704Z,98295.09
2023-06-30T03:55:26.796Z,98291.61
2023-06-30T03:56:26.735Z,98292.44
2023-06-30T03:57:26.772Z,98289.95
2023-06-30T03:58:26.794Z,98292.92
2023-06-30T03:59:26.782Z,98292.86
2023-06-30T04:00:26.855Z,98290.38
2023-06-30T04:01:26.811Z,98292.66
2023-06-30T04:02:26.947Z,98292.61
2023-06-30T04:03:28.123Z,98296.77
2023-06-30T04:04:27.005Z,98297.09
2023-06-30T04:05:26.983Z,98297.75
2023-06-30T04:06:26.912Z,98298.66
2023-06-30T04:07:27.005Z,98294.89
2023-06-30T04:08:27.195Z,98296.38
2023-06-30T04:09:26.989Z,98296.12
2023-06-30T04:10:26.969Z,98295.81
2023-06-30T04:11:27.045Z,98294.56
2023-06-30T04:12:27.015Z,98293.74
2023-06-30T04:13:27.019Z,98292.02
2023-06-30T04:14:27.031Z,98294.44
2023-06-30T04:15:27.097Z,98292.91
2023-06-30T04:16:27.186Z,98296.55
2023-06-30T04:17:27.132Z,98296.75
2023-06-30T04:18:27.104Z,98296.03
2023-06-30T04:19:27.138Z,98296.55
2023-06-30T04:20:27.252Z,98296.55
2023-06-30T04:21:27.295Z,98295.56
2023-06-30T04:22:27.189Z,98296.12
2023-06-30T04:23:27.201Z,98298.52
2023-06-30T04:24:27.190Z,98297.64
2023-06-30T04:25:27.220Z,98300.67
2023-06-30T04:26:27.299Z,98297.02
2023-06-30T04:27:27.251Z,98301.14
2023-06-30T04:28:27.534Z,98299.32
2023-06-30T04:29:27.259Z,98300.39
2023-06-30T04:30:27.329Z,98300.75
2023-06-30T04:31:27.338Z,98296.33
2023-06-30T04:32:27.357Z,98299.84
2023-06-30T04:33:27.935Z,98300.26
2023-06-30T04:34:27.976Z,98300.19
2023-06-30T04:35:28.036Z,98299.02
2023-06-30T04:36:27.969Z,98299.11
2023-06-30T04:37:28.048Z,98301.89
2023-06-30T04:38:28.134Z,98304.99
2023-06-30T04:39:28.217Z,98301.33
2023-06-30T04:40:28.078Z,98306.25
2023-06-30T04:41:28.101Z,98308
2023-06-30T04:42:28.227Z,98307.59
2023-06-30T04:43:28.112Z,98308.42
2023-06-30T04:44:28.123Z,98306.41
2023-06-30T04:45:28.142Z,98304.76
2023-06-30T04:46:28.189Z,98310.97
2023-06-30T04:47:28.170Z,98309.45
2023-06-30T04:48:28.234Z,98307.59
2023-06-30T04:49:28.198Z,98311.21
2023-06-30T04:50:28.256Z,98309.05
2023-06-30T04:51:28.269Z,98312.2
2023-06-30T04:52:28.610Z,98308.03
2023-06-30T04:53:28.309Z,98311.8
2023-06-30T04:54:28.295Z,98311.62
2023-06-30T04:55:28.526Z,98312.31
2023-06-30T04:56:28.330Z,98313.05
2023-06-30T04:57:28.364Z,98314.97
2023-06-30T04:58:28.390Z,98311.62
2023-06-30T04:59:28.472Z,98315.06
2023-06-30T05:00:28.396Z,98321.19
2023-06-30T05:01:28.459Z,98320.77
2023-06-30T05:02:28.587Z,98318.68
2023-06-30T05:03:28.477Z,98317.59
2023-06-30T05:04:28.459Z,98317.06
2023-06-30T05:05:28.479Z,98318.6
2023-06-30T05:06:28.460Z,98315.23
2023-06-30T05:07:28.526Z,98319.09
2023-06-30T05:08:28.548Z,98316.66
2023-06-30T05:09:28.513Z,98323.03
2023-06-30T05:10:28.554Z,98321.02
2023-06-30T05:11:28.548Z,98321.77
2023-06-30T05:12:28.569Z,98324.88
2023-06-30T05:13:28.601Z,98324.38
2023-06-30T05:14:28.620Z,98327.14
2023-06-30T05:15:28.605Z,98328.56
2023-06-30T05:16:28.699Z,98327.52
2023-06-30T05:17:28.833Z,98330.2
2023-06-30T05:18:28.762Z,98328.86
2023-06-30T05:19:28.735Z,98327.78
2023-06-30T05:20:28.749Z,98329.2
2023-06-30T05:21:28.720Z,98328.86
2023-06-30T05:22:28.732Z,98330.75
2023-06-30T05:23:28.763Z,98331.16
2023-06-30T05:24:28.792Z,98337.34
2023-06-30T05:25:28.836Z,98333.64
2023-06-30T05:26:28.833Z,98335.14
2023-06-30T05:27:28.833Z,98334.44
2023-06-30T05:28:28.891Z,98339.13
2023-06-30T05:29:32.178Z,98341.4
2023-06-30T05:30:28.974Z,98338.95
2023-06-30T05:31:28.961Z,98337.52
2023-06-30T05:32:28.918Z,98337.27
2023-06-30T05:33:29.085Z,98338.8
2023-06-30T05:34:28.907Z,98340.62
2023-06-30T05:35:28.966Z,98342.18
2023-06-30T05:36:31.753Z,98340.03
2023-06-30T05:37:28.995Z,98338.2
2023-06-30T05:38:29.032Z,98343
2023-06-30T05:39:29.122Z,98335.82
2023-06-30T05:40:29.038Z,98337.53
2023-06-30T05:41:29.053Z,98334.92
2023-06-30T05:42:29.061Z,98336.89
2023-06-30T05:43:29.076Z,98336.87
2023-06-30T05:44:29.120Z,98340.22
2023-06-30T05:45:29.219Z,98341.31
2023-06-30T05:46:29.191Z,98341.84
2023-06-30T05:47:29.316Z,98340.8
2023-06-30T05:48:29.199Z,98342
2023-06-30T05:49:29.274Z,98346
2023-06-30T05:50:29.215Z,98344.97
2023-06-30T05:51:29.452Z,98344.66
2023-06-30T05:52:29.251Z,98342.98
2023-06-30T05:53:29.231Z,98343.52
2023-06-30T05:54:29.303Z,98342.34
2023-06-30T05:55:29.298Z,98339.89
2023-06-30T05:56:29.903Z,98344.19
2023-06-30T05:57:29.317Z,98344.06
2023-06-30T05:58:29.345Z,98343.73
2023-06-30T05:59:29.464Z,98346.52
2023-06-30T06:00:29.346Z,98347.19
2023-06-30T06:01:29.382Z,98353.64
2023-06-30T06:02:29.700Z,98350.54
2023-06-30T06:03:29.531Z,98352.57
2023-06-30T06:04:29.567Z,98357.53
2023-06-30T06:05:29.543Z,98362.17
2023-06-30T06:06:29.444Z,98359.24
2023-06-30T06:07:29.596Z,98361.17
2023-06-30T06:08:29.499Z,98363.02
2023-06-30T06:09:29.636Z,98362.3
2023-06-30T06:10:29.701Z,98362.45
2023-06-30T06:11:29.735Z,98360.56
2023-06-30T06:12:29.590Z,98357.32
2023-06-30T06:13:36.518Z,98362.84
2023-06-30T06:14:32.719Z,98358.04
2023-06-30T06:15:32.721Z,98349.47
2023-06-30T06:16:32.780Z,98353.66
2023-06-30T06:17:33.417Z,98353.41
2023-06-30T06:18:33.048Z,98354.26
2023-06-30T06:19:32.800Z,98353.04
2023-06-30T06:20:32.821Z,98349.9
2023-06-30T06:21:32.831Z,98356.91
2023-06-30T06:22:32.971Z,98356.92
2023-06-30T06:23:32.944Z,98357.8
2023-06-30T06:24:32.884Z,98364.06
2023-06-30T06:25:32.877Z,98362.64
2023-06-30T06:26:32.941Z,98364.55
2023-06-30T06:27:35.925Z,98366.14
2023-06-30T06:28:32.923Z,98371.3
2023-06-30T06:29:32.948Z,98371.62
2023-06-30T06:30:32.963Z,98374.52
2023-06-30T06:31:32.957Z,98376.45
2023-06-30T06:32:33.158Z,98380.78
2023-06-30T06:33:33.006Z,98383.4
2023-06-30T06:34:33.024Z,98383.12
2023-06-30T06:35:33.067Z,98382.1
2023-06-30T06:36:33.026Z,98387.86
2023-06-30T06:37:33.042Z,98386.09
2023-06-30T06:38:33.082Z,98396.17
2023-06-30T06:39:33.244Z,98389.95
2023-06-30T06:40:33.190Z,98395.41
2023-06-30T06:41:33.139Z,98392.22
2023-06-30T06:42:33.153Z,98388.91
2023-06-30T06:43:33.187Z,98388.62
2023-06-30T06:44:33.199Z,98393.85
2023-06-30T06:45:33.209Z,98390.42
2023-06-30T06:46:33.472Z,98395.25
2023-06-30T06:48:38.076Z,98395.08
2023-06-30T06:49:38.104Z,98396.59
2023-06-30T06:50:38.095Z,98397.44
2023-06-30T06:51:38.105Z,98395.28
2023-06-30T06:52:38.102Z,98403.48
2023-06-30T06:53:38.127Z,98396.6
2023-06-30T06:54:38.170Z,98398.77
2023-06-30T06:55:38.694Z,98395.19
2023-06-30T06:56:38.885Z,98398.42
2023-06-30T06:57:38.819Z,98395.61
2023-06-30T06:58:39.025Z,98400.16
2023-06-30T06:59:38.879Z,98403.54
2023-06-30T07:00:38.900Z,98400.88
2023-06-30T07:01:38.868Z,98405.72
2023-06-30T07:02:38.864Z,98413.37
2023-06-30T07:03:39.268Z,98416.37
2023-06-30T07:04:38.991Z,98422.58
2023-06-30T07:05:38.864Z,98422.45
2023-06-30T07:06:38.883Z,98428.36
2023-06-30T07:07:38.981Z,98423.26
2023-06-30T07:08:39.417Z,98427.79
2023-06-30T07:09:39.378Z,98436.06
2023-06-30T07:10:39.878Z,98432.42
2023-06-30T07:11:39.473Z,98426.38
2023-06-30T07:12:39.487Z,98433.3
2023-06-30T07:13:39.555Z,98432.58
2023-06-30T07:14:39.511Z,98438.41
2023-06-30T07:15:39.538Z,98448.98
2023-06-30T07:16:39.611Z,98447.72
2023-06-30T07:17:39.617Z,98444.62
2023-06-30T07:18:39.706Z,98447.66
2023-06-30T07:19:39.729Z,98441.88
2023-06-30T07:20:39.583Z,98446.09
2023-06-30T07:21:39.642Z,98446.45
2023-06-30T07:22:39.636Z,98447.27
2023-06-30T07:23:39.682Z,98440.41
2023-06-30T07:24:43.669Z,98444.12
2023-06-30T07:25:40.953Z,98438.86
2023-06-30T07:26:40.963Z,98441.94
2023-06-30T07:27:47.382Z,98446.95
2023-06-30T07:28:43.988Z,98441.71
2023-06-30T07:29:44.060Z,98443.56
2023-06-30T07:30:44.191Z,98444.41
2023-06-30T07:31:44.108Z,98447.34
2023-06-30T07:32:44.108Z,98443.56
2023-06-30T07:33:44.238Z,98445.88
2023-06-30T07:34:44.126Z,98442.96
2023-06-30T07:35:44.477Z,98443.73
2023-06-30T07:36:44.189Z,98449.16
2023-06-30T07:37:44.598Z,98444.43
2023-06-30T07:38:44.216Z,98448.55
2023-06-30T07:39:44.428Z,98451.15
2023-06-30T07:40:55.132Z,98451.41
2023-06-30T07:41:48.961Z,98451.84
2023-06-30T07:42:48.040Z,98455.7
2023-06-30T07:43:48.039Z,98456.02
2023-06-30T07:44:48.058Z,98448.94
2023-06-30T07:45:48.402Z,98457.81
2023-06-30T07:46:48.145Z,98455.6
2023-06-30T07:47:48.271Z,98456.18
2023-06-30T07:48:48.236Z,98477.24
2023-06-30T07:49:48.296Z,98479.47
2023-06-30T07:51:03.301Z,98473.77
2023-06-30T07:51:48.810Z,98478.56
2023-06-30T07:52:49.576Z,98479.47
2023-06-30T07:53:48.856Z,98478.88
2023-06-30T07:54:48.848Z,98478.38
2023-06-30T07:55:50.528Z,98475.16
2023-06-30T07:56:48.870Z,98469.79
2023-06-30T07:57:48.897Z,98478.12
2023-06-30T07:58:48.865Z,98475.04
2023-06-30T07:59:48.928Z,98475.22
2023-06-30T08:00:48.924Z,98483.36
2023-06-30T08:01:48.954Z,98479.52
2023-06-30T08:02:49.378Z,98466.96
2023-06-30T08:03:49.098Z,98474.42
2023-06-30T08:04:49.264Z,98476.38
2023-06-30T08:05:49.369Z,98478.52
2023-06-30T08:06:49.014Z,98475.13
2023-06-30T08:07:51.340Z,98477.81
2023-06-30T08:08:49.420Z,98476.67
2023-06-30T08:09:49.146Z,98479.27
2023-06-30T08:10:49.318Z,98479.47
2023-06-30T08:11:49.105Z,98476.54
2023-06-30T08:12:49.118Z,98479.23
2023-06-30T08:13:49.125Z,98486.42
2023-06-30T08:14:49.204Z,98479.95
2023-06-30T08:15:49.903Z,98481.05
2023-06-30T08:16:49.232Z,98473.37
2023-06-30T08:17:53.120Z,98476.47
2023-06-30T08:18:51.189Z,98473.59
2023-06-30T08:19:49.765Z,98474.08
2023-06-30T08:20:49.393Z,98472.31
2023-06-30T08:21:49.439Z,98469.45
2023-06-30T08:22:49.505Z,98468.64
2023-06-30T08:23:49.460Z,98468.23
2023-06-30T08:24:49.630Z,98471.73
2023-06-30T08:25:49.486Z,98472.8
2023-06-30T08:26:49.496Z,98466.78
2023-06-30T08:27:49.681Z,98463.67
2023-06-30T08:28:49.489Z,98463.97
2023-06-30T08:29:50.223Z,98466.21
2023-06-30T08:30:49.968Z,98464.58
2023-06-30T08:31:49.556Z,98466.79
2023-06-30T08:32:49.825Z,98464.7
2023-06-30T08:33:49.621Z,98460.69
2023-06-30T08:34:49.619Z,98461.86
2023-06-30T08:35:49.645Z,98461.88
2023-06-30T08:36:49.640Z,98458.13
2023-06-30T08:37:53.104Z,98467.39
2023-06-30T08:38:50.289Z,98465.28
2023-06-30T08:39:50.454Z,98455.7
2023-06-30T08:40:50.462Z,98463.89
2023-06-30T08:41:52.940Z,98458.86
2023-06-30T08:42:52.516Z,98459.92
2023-06-30T08:43:51.612Z,98462.06
2023-06-30T08:44:51.211Z,98460.52
2023-06-30T08:45:53.595Z,98463.72
2023-06-30T08:46:54.398Z,98453.25
2023-06-30T08:47:51.885Z,98459.52
2023-06-30T08:48:51.604Z,98456.7
2023-06-30T08:49:51.719Z,98453.74
2023-06-30T08:50:51.026Z,98455.07
2023-06-30T08:51:55.326Z,98453.27
2023-06-30T08:52:52.240Z,98452.89
2023-06-30T08:53:51.657Z,98456.75
2023-06-30T08:54:52.363Z,98456.76
2023-06-30T08:55:52.255Z,98457.52
2023-06-30T08:56:54.344Z,98458.05
2023-06-30T08:57:55.056Z,98452.86
2023-06-30T08:58:52.316Z,98453.98
2023-06-30T08:59:52.322Z,98452
2023-06-30T09:00:52.601Z,98451.64
2023-06-30T09:01:52.580Z,98451.06
2023-06-30T09:02:53.857Z,98460.7
2023-06-30T09:03:52.630Z,98452.4
2023-06-30T09:04:52.568Z,98457.73
2023-06-30T09:05:54.607Z,98455.09
2023-06-30T09:06:53.302Z,98446.12
2023-06-30T09:07:56.576Z,98452.45
2023-06-30T09:10:00.768Z,98446.59
2023-06-30T09:10:58.110Z,98450.26
2023-06-30T09:11:57.798Z,98452.14
2023-06-30T09:12:57.914Z,98452.59
2023-06-30T09:13:57.632Z,98453.81
2023-06-30T09:14:59.623Z,98452.3
2023-06-30T09:15:58.663Z,98449.3
2023-06-30T09:16:58.228Z,98449.05
2023-06-30T09:17:58.124Z,98446.27
2023-06-30T09:18:57.668Z,98445.6
2023-06-30T09:19:57.596Z,98448.95
2023-06-30T09:20:57.957Z,98446.65
2023-06-30T09:21:57.866Z,98441.98
2023-06-30T09:22:57.863Z,98445.74
2023-06-30T09:23:57.640Z,98440.63
2023-06-30T09:24:57.636Z,98442.73
2023-06-30T09:25:57.715Z,98441.92
2023-06-30T09:26:59.473Z,98443.28
2023-06-30T09:27:57.694Z,98444.27
2023-06-30T09:28:57.810Z,98443.87
2023-06-30T09:29:57.689Z,98442.11
2023-06-30T09:30:59.485Z,98446.38
2023-06-30T09:32:00.981Z,98442.58
2023-06-30T09:32:57.863Z,98444.55
2023-06-30T09:35:09.250Z,98442.73
2023-06-30T09:36:01.008Z,98444.24
2023-06-30T09:37:01.025Z,98447.38
2023-06-30T09:38:00.966Z,98445.05
2023-06-30T09:39:00.981Z,98444.61
2023-06-30T09:40:01.141Z,98444.7
2023-06-30T09:41:04.406Z,98440.86
2023-06-30T09:42:01.104Z,98441.55
2023-06-30T09:43:01.128Z,98448.7
2023-06-30T09:44:01.132Z,98437.11
2023-06-30T09:45:01.567Z,98438.38
2023-06-30T09:46:01.763Z,98445.79
2023-06-30T09:47:01.243Z,98438.99
2023-06-30T09:48:01.220Z,98437.92
2023-06-30T09:49:01.163Z,98436.95
2023-06-30T09:50:01.268Z,98434.86
2023-06-30T09:51:01.338Z,98434.61
2023-06-30T09:52:01.763Z,98438.77
2023-06-30T09:53:01.757Z,98435.02
2023-06-30T09:54:09.031Z,98429.44
2023-06-30T09:55:12.138Z,98435.65
2023-06-30T09:56:08.965Z,98433.2
2023-06-30T09:57:08.851Z,98433.5
2023-06-30T09:58:11.749Z,98429.59
2023-06-30T09:59:13.888Z,98431.03
2023-06-30T10:00:33.961Z,98428.83
2023-06-30T10:01:11.454Z,98434.27
2023-06-30T10:02:13.396Z,98429.8
2023-06-30T10:03:11.530Z,98428.98
2023-06-30T10:04:11.480Z,98425.27
2023-06-30T10:05:11.979Z,98433.73
2023-06-30T10:06:11.900Z,98427.67
2023-06-30T10:07:14.471Z,98424.59
2023-06-30T10:08:11.860Z,98425.43
2023-06-30T10:09:11.816Z,98424.76
2023-06-30T10:10:12.362Z,98419.77
2023-06-30T10:11:11.829Z,98420.8
2023-06-30T10:12:12.286Z,98415
2023-06-30T10:13:12.360Z,98419.5
2023-06-30T10:14:12.047Z,98417.78
2023-06-30T10:15:11.965Z,98406.45
2023-06-30T10:16:11.993Z,98415.25
2023-06-30T10:17:12.106Z,98418.63
2023-06-30T10:18:13.130Z,98414.83
2023-06-30T10:19:11.746Z,98411.7
2023-06-30T10:20:12.086Z,98410.34
2023-06-30T10:21:12.191Z,98408.67
2023-06-30T10:22:12.721Z,98406.7
2023-06-30T10:23:12.430Z,98405.92
2023-06-30T10:24:12.151Z,98408.16
2023-06-30T10:25:12.834Z,98408.8
2023-06-30T10:26:13.959Z,98407.91
2023-06-30T10:27:13.900Z,98403.61
2023-06-30T10:28:12.137Z,98402.44
2023-06-30T10:29:11.897Z,98401.65
2023-06-30T10:30:12.480Z,98401.48
2023-06-30T10:31:12.136Z,98407.11
2023-06-30T10:32:12.060Z,98404.48
2023-06-30T10:33:12.118Z,98404.54
2023-06-30T10:34:12.335Z,98400.42
2023-06-30T10:35:12.292Z,98399.66
2023-06-30T10:36:13.039Z,98393.05
2023-06-30T10:37:12.216Z,98397.36
2023-06-30T10:38:12.333Z,98395.79
2023-06-30T10:39:12.558Z,98390.84
2023-06-30T10:41:21.040Z,98391.11
2023-06-30T10:42:17.912Z,98380.92
2023-06-30T10:43:18.086Z,98384.27
2023-06-30T10:44:18.407Z,98382.19
2023-06-30T10:45:18.066Z,98381.92
2023-06-30T10:46:18.099Z,98382.7
2023-06-30T10:47:26.240Z,98385.11
2023-06-30T10:48:27.589Z,98385.89
2023-06-30T10:49:31.086Z,98380.56
2023-06-30T10:50:27.880Z,98386.3
2023-06-30T10:51:34.546Z,98373.9
2023-06-30T10:52:31.176Z,98373.58
2023-06-30T10:53:31.251Z,98375.56
2023-06-30T10:55:35.140Z,98376.58
2023-06-30T10:56:35.179Z,98368.73
2023-06-30T10:57:37.809Z,98370.76
2023-06-30T10:58:40.537Z,98368.7
2023-06-30T10:59:38.209Z,98370.62
2023-06-30T11:00:37.289Z,98371.71
2023-06-30T11:01:37.993Z,98371.31
2023-06-30T11:02:47.242Z,98370.27
2023-06-30T11:04:44.483Z,98365.09
2023-06-30T11:05:43.492Z,98360.59
2023-06-30T11:06:46.187Z,98363.83
2023-06-30T11:07:46.521Z,98360.2
2023-06-30T11:10:48.470Z,98358.73
2023-06-30T11:11:51.874Z,98359.17
2023-06-30T11:14:05.963Z,98354.06
2023-06-30T11:14:58.375Z,98355.14
2023-06-30T11:15:57.699Z,98353.77
2023-06-30T11:17:01.908Z,98350.95
2023-06-30T11:17:59.222Z,98348.95
2023-06-30T11:19:01.508Z,98352.41
2023-06-30T11:23:03.892Z,98343.58
2023-06-30T11:25:08.828Z,98340.03
2023-06-30T11:26:15.149Z,98336.59
2023-06-30T11:27:07.060Z,98340.35
2023-06-30T11:28:06.759Z,98329.67
2023-06-30T11:29:06.914Z,98334.77
2023-06-30T11:30:07.843Z,98333.16
2023-06-30T11:31:06.760Z,98330.88
2023-06-30T11:32:07.222Z,98330.03
2023-06-30T11:33:07.303Z,98331.03
2023-06-30T11:34:06.874Z,98322.7
2023-06-30T11:35:07.488Z,98326.2
2023-06-30T11:36:12.801Z,98329.64
2023-06-30T11:37:09.055Z,98325.22
2023-06-30T11:38:08.999Z,98333.39
2023-06-30T11:39:09.008Z,98316.36
2023-06-30T11:40:09.257Z,98324.58
2023-06-30T11:41:09.185Z,98316.92
2023-06-30T11:42:09.048Z,98320.7
2023-06-30T11:43:09.472Z,98321.22
2023-06-30T11:44:09.115Z,98321.47
2023-06-30T11:45:09.541Z,98320.81
2023-06-30T11:46:09.208Z,98319.64
2023-06-30T11:47:09.242Z,98317.44
2023-06-30T11:48:09.151Z,98315.54
2023-06-30T11:49:09.834Z,98313.03
2023-06-30T11:50:09.625Z,98314.05
2023-06-30T11:51:11.867Z,98309.54
2023-06-30T11:52:09.757Z,98309.96
2023-06-30T11:53:09.544Z,98312.9
2023-06-30T11:54:09.207Z,98313.99
2023-06-30T11:55:10.673Z,98319.39
2023-06-30T11:56:09.390Z,98317.25
2023-06-30T11:57:09.452Z,98316.39
2023-06-30T11:58:09.284Z,98314.64
2023-06-30T11:59:09.257Z,98312.62
2023-06-30T12:00:10.480Z,98314.77
2023-06-30T12:01:09.351Z,98315.79
2023-06-30T12:02:11.596Z,98310.34
2023-06-30T12:03:09.468Z,98310.55
2023-06-30T12:05:11.103Z,98313.67
2023-06-30T12:06:10.669Z,98311.7
2023-06-30T12:07:10.627Z,98315.41
2023-06-30T12:08:10.639Z,98313.06